createdAt,value
2018-05-04T00:03:31.308Z,5.83
2018-05-04T00:09:26.257Z,4.8
2018-05-04T00:15:21.289Z,5.16
2018-05-04T00:21:16.255Z,5.81
2018-05-04T00:27:11.328Z,4.49
2018-05-04T00:33:06.291Z,7.79
2018-05-04T00:39:01.254Z,5.51
2018-05-04T00:44:56.291Z,8.02
2018-05-04T00:50:51.298Z,10.19
2018-05-04T00:56:46.278Z,9.47
2018-05-04T01:02:41.312Z,11.94
2018-05-04T01:08:36.284Z,13.67
2018-05-04T01:14:31.281Z,12.27
2018-05-04T01:20:26.333Z,12.01
2018-05-04T01:26:21.284Z,12.45
2018-05-04T01:32:16.254Z,20.18
2018-05-04T01:38:11.306Z,15.89
2018-05-04T01:44:06.264Z,15.63
2018-05-04T01:50:01.268Z,19.09
2018-05-04T01:55:56.286Z,12.98
2018-05-04T02:01:51.282Z,17.08
2018-05-04T02:07:46.342Z,20.19
2018-05-04T02:13:41.304Z,20.77
2018-05-04T02:19:36.323Z,22.12
2018-05-04T02:25:31.265Z,18.08
2018-05-04T02:31:26.297Z,21.71
2018-05-04T02:37:21.292Z,17.08
2018-05-04T02:43:16.322Z,18.61
2018-05-04T02:49:11.284Z,17.09
2018-05-04T02:55:06.279Z,17.94
2018-05-04T03:01:01.305Z,9.03
2018-05-04T03:06:56.283Z,14.01
2018-05-04T03:12:51.288Z,15.42
2018-05-04T03:18:46.296Z,15.41
2018-05-04T03:24:41.291Z,9.15
2018-05-04T03:30:36.284Z,17.5
2018-05-04T03:36:31.316Z,12.58
2018-05-04T03:42:26.294Z,13.58
2018-05-04T03:48:21.295Z,11.1
2018-05-04T03:54:16.364Z,13.6
2018-05-04T04:00:11.389Z,8.87
2018-05-04T04:06:06.312Z,11.5
2018-05-04T04:12:01.312Z,5.33
2018-05-04T04:17:56.345Z,6.27
2018-05-04T04:23:51.296Z,13.36
2018-05-04T04:29:46.306Z,9.1
2018-05-04T04:35:41.358Z,14.16
2018-05-04T04:41:36.337Z,8.73
2018-05-04T04:47:31.329Z,11
2018-05-04T04:53:26.328Z,10.27
2018-05-04T04:59:21.335Z,20.97
2018-05-04T05:05:16.334Z,13.05
2018-05-04T05:11:11.333Z,9.91
2018-05-04T05:17:06.327Z,17.58
2018-05-04T05:23:01.325Z,8.24
2018-05-04T05:28:56.368Z,16.63
2018-05-04T05:34:51.352Z,13.61
2018-05-04T05:40:46.315Z,16.85
2018-05-04T05:46:41.305Z,13.33
2018-05-04T05:52:36.307Z,11.29
2018-05-04T05:58:31.368Z,11.42
2018-05-04T06:04:26.338Z,14.62
2018-05-04T06:10:21.370Z,11.49
2018-05-04T06:16:16.349Z,13.91
2018-05-04T06:22:11.345Z,11.01
2018-05-04T06:28:06.325Z,13.56
2018-05-04T06:34:01.353Z,13.52
2018-05-04T06:39:56.347Z,15.49
2018-05-04T06:45:51.380Z,12.61
2018-05-04T06:51:46.350Z,10.62
2018-05-04T06:57:41.348Z,20.15
2018-05-04T07:03:36.318Z,19.52
2018-05-04T07:09:31.311Z,14.67
2018-05-04T07:15:26.384Z,17.28
2018-05-04T07:21:21.318Z,13.56
2018-05-04T07:27:16.338Z,11.99
2018-05-04T07:33:11.352Z,14.85
2018-05-04T07:39:06.339Z,11.62
2018-05-04T07:45:01.374Z,20.09
2018-05-04T07:50:56.336Z,23.36
2018-05-04T07:56:51.356Z,15.55
2018-05-04T08:02:46.351Z,12.56
2018-05-04T08:08:41.377Z,15.6
2018-05-04T08:14:36.358Z,17.16
2018-05-04T08:20:31.353Z,9.38
2018-05-04T08:26:26.332Z,10.94
2018-05-04T08:32:21.381Z,13.87
2018-05-04T08:38:16.334Z,12.03
2018-05-04T08:44:11.373Z,12.6
2018-05-04T08:50:06.391Z,9.2
2018-05-04T08:56:01.380Z,13.84
2018-05-04T09:01:56.384Z,9.4
2018-05-04T09:07:51.363Z,10.51
2018-05-04T09:13:46.352Z,9.48
2018-05-04T09:19:41.358Z,14.38
2018-05-04T09:25:36.335Z,11.62
2018-05-04T09:31:31.351Z,10.21
2018-05-04T09:37:26.365Z,9.82
2018-05-04T09:43:21.390Z,12.47
2018-05-04T09:49:16.349Z,14.79
2018-05-04T09:55:11.379Z,9.35
2018-05-04T10:01:06.394Z,4.63
2018-05-04T10:07:01.414Z,7.42
2018-05-04T10:12:56.401Z,8.9
2018-05-04T10:18:51.366Z,14.66
2018-05-04T10:24:46.473Z,9.5
2018-05-04T10:36:36.389Z,9.39
2018-05-04T10:36:36.416Z,7.38
2018-05-04T10:42:31.442Z,8.13
2018-05-04T10:48:26.463Z,11.04
2018-05-04T10:54:21.404Z,6.27
2018-05-04T11:00:16.423Z,7.63
2018-05-04T11:06:11.396Z,8.16
2018-05-04T11:12:06.430Z,10.41
2018-05-04T11:18:01.419Z,8.33
2018-05-04T11:23:56.401Z,8.68
2018-05-04T11:29:51.434Z,7.2
2018-05-04T11:35:46.407Z,5.54
2018-05-04T11:41:41.413Z,7.94
2018-05-04T11:47:36.441Z,10.3
2018-05-04T11:53:31.405Z,10.5
2018-05-04T11:59:26.431Z,8.46
2018-05-04T12:05:21.411Z,10.24
2018-05-04T12:11:16.400Z,7.27
2018-05-04T12:17:11.486Z,6.78
2018-05-04T12:23:06.405Z,10.01
2018-05-04T12:29:01.391Z,5.69
2018-05-04T12:34:56.439Z,5.85
2018-05-04T12:40:51.447Z,5.76
2018-05-04T12:46:46.418Z,5.69
2018-05-04T12:52:41.493Z,5.64
2018-05-04T12:58:36.436Z,3.58
2018-05-04T13:04:31.478Z,7.02
2018-05-04T13:10:26.520Z,4.14
2018-05-04T13:16:21.401Z,5.29
2018-05-04T13:22:16.410Z,3.85
2018-05-04T13:28:11.417Z,2.25
2018-05-04T13:34:06.442Z,4.06
2018-05-04T13:40:01.436Z,9.46
2018-05-04T13:45:56.440Z,9.76
2018-05-04T13:51:51.404Z,6.87
2018-05-04T13:57:46.431Z,7.09
2018-05-04T14:03:41.420Z,10.27
2018-05-04T14:09:36.413Z,8.36
2018-05-04T14:15:31.458Z,4.68
2018-05-04T14:21:26.408Z,6.65
2018-05-04T14:27:21.616Z,6.98
2018-05-04T14:33:16.453Z,7.26
2018-05-04T14:39:11.430Z,6.27
2018-05-04T14:45:06.443Z,7.89
2018-05-04T14:51:01.466Z,9.23
2018-05-04T14:56:56.410Z,6.76
2018-05-04T15:02:51.445Z,7.23
2018-05-04T15:08:46.446Z,11.37
2018-05-04T15:14:41.434Z,6.75
2018-05-04T15:20:36.428Z,5.54
2018-05-04T15:26:31.440Z,6.96
2018-05-04T15:32:26.507Z,7.97
2018-05-04T15:38:21.471Z,4.57
2018-05-04T15:44:16.477Z,8.42
2018-05-04T15:50:11.460Z,10.86
2018-05-04T15:56:06.435Z,7.58
2018-05-04T16:02:01.444Z,4.97
2018-05-04T16:07:56.420Z,6.45
2018-05-04T16:13:51.469Z,5.46
2018-05-04T16:19:46.473Z,5.52
2018-05-04T16:25:41.429Z,10.19
2018-05-04T16:31:36.454Z,7.32
2018-05-04T16:37:31.452Z,6.68
2018-05-04T16:43:26.512Z,4.6
2018-05-04T16:49:21.458Z,4.13
2018-05-04T16:55:16.460Z,6.98
2018-05-04T17:01:11.464Z,5.86
2018-05-04T17:07:06.443Z,5.49
2018-05-04T17:13:01.491Z,6.59
2018-05-04T17:18:56.448Z,7.86
2018-05-04T17:24:51.466Z,11.37
2018-05-04T17:30:46.469Z,6.01
2018-05-04T17:36:41.478Z,5.51
2018-05-04T17:42:36.518Z,11.35
2018-05-04T17:48:31.473Z,6.72
2018-05-04T17:54:26.478Z,11.92
2018-05-04T18:00:21.476Z,11.37
2018-05-04T18:06:16.472Z,10.63
2018-05-04T18:12:11.508Z,10.67
2018-05-04T18:18:06.485Z,11.57
2018-05-04T18:24:01.437Z,8.28
2018-05-04T18:29:56.489Z,9.25
2018-05-04T18:35:51.472Z,7.12
2018-05-04T18:41:46.443Z,8.47
2018-05-04T18:47:41.492Z,8.07
2018-05-04T18:53:36.471Z,8.12
2018-05-04T18:59:31.499Z,6.66
2018-05-04T19:05:26.484Z,12.04
2018-05-04T19:11:21.511Z,6.46
2018-05-04T19:17:16.475Z,9.93
2018-05-04T19:23:11.500Z,6.59
2018-05-04T19:29:06.477Z,6.82
2018-05-04T19:35:01.461Z,11.1
2018-05-04T19:40:56.452Z,6.49
2018-05-04T19:46:51.482Z,6.39
2018-05-04T19:52:46.473Z,9.12
2018-05-04T19:58:41.507Z,10.19
2018-05-04T20:04:36.548Z,9.4
2018-05-04T20:10:31.457Z,13.45
2018-05-04T20:16:26.498Z,13.86
2018-05-04T20:22:21.488Z,10.95
2018-05-04T20:28:16.473Z,14.03
2018-05-04T20:34:11.500Z,16.61
2018-05-04T20:40:06.468Z,15.71
2018-05-04T20:46:01.505Z,14.38
2018-05-04T20:51:56.533Z,12.08
2018-05-04T20:57:51.456Z,17.1
2018-05-04T21:03:46.482Z,15.54
2018-05-04T21:09:41.452Z,9.52
2018-05-04T21:15:36.484Z,17.54
2018-05-04T21:21:31.490Z,12.44
2018-05-04T21:27:26.520Z,14.88
2018-05-04T21:33:21.491Z,14.99
2018-05-04T21:39:16.478Z,10.03
2018-05-04T21:45:11.524Z,12.17
2018-05-04T21:51:06.477Z,13.35
2018-05-04T21:57:01.485Z,9.87
2018-05-04T22:02:56.469Z,12.36
2018-05-04T22:08:51.512Z,11.17
2018-05-04T22:14:46.482Z,15.68
2018-05-04T22:20:41.491Z,18.14
2018-05-04T22:26:36.620Z,13.35
2018-05-04T22:32:31.501Z,15.15
2018-05-04T22:38:26.489Z,12.84
2018-05-04T22:44:21.502Z,7.77
2018-05-04T22:50:16.487Z,15.56
2018-05-04T22:56:11.487Z,11.24
2018-05-04T23:02:06.503Z,13.6
2018-05-04T23:08:01.509Z,11.9
2018-05-04T23:13:56.523Z,11.7
2018-05-04T23:19:51.479Z,14.56
2018-05-04T23:25:46.485Z,10.83
2018-05-04T23:31:41.502Z,14.8
2018-05-04T23:37:36.481Z,14.28
2018-05-04T23:43:31.459Z,11.84
2018-05-04T23:49:26.456Z,22.54
2018-05-04T23:55:21.478Z,11.1
